createdAt,value
2019-05-21T00:02:27.476Z,11.37
2019-05-21T00:04:56.197Z,11.53
2019-05-21T00:07:25.058Z,10.87
2019-05-21T00:09:53.891Z,10.73
2019-05-21T00:12:22.698Z,11.07
2019-05-21T00:14:51.614Z,10.80
2019-05-21T00:17:20.351Z,11.10
2019-05-21T00:19:49.144Z,10.43
2019-05-21T00:22:18.186Z,11.13
2019-05-21T00:27:17.629Z,10.90
2019-05-21T00:30:04.394Z,11.60
2019-05-21T00:32:51.233Z,12.17
2019-05-21T00:35:46.907Z,11.30
2019-05-21T00:38:33.491Z,11.50
2019-05-21T00:41:20.367Z,11.73
2019-05-21T00:43:52.418Z,11.30
2019-05-21T00:46:21.209Z,10.97
2019-05-21T00:48:50.025Z,11.03
2019-05-21T00:51:18.754Z,11.00
2019-05-21T00:53:47.436Z,12.10
2019-05-21T00:56:16.108Z,10.87
2019-05-21T00:58:45.162Z,11.70
2019-05-21T01:01:14.109Z,10.17
2019-05-21T01:03:43.502Z,10.50
2019-05-21T01:06:12.509Z,12.00
2019-05-21T01:08:41.133Z,12.40
2019-05-21T01:11:10.260Z,12.13
2019-05-21T01:13:39.150Z,11.37
2019-05-21T01:16:07.924Z,13.20
2019-05-21T01:18:36.714Z,11.90
2019-05-21T01:21:07.414Z,12.10
2019-05-21T01:23:36.358Z,15.30
2019-05-21T01:26:05.302Z,12.50
2019-05-21T01:28:33.986Z,11.53
2019-05-21T01:31:03.112Z,12.30
2019-05-21T01:33:32.128Z,12.53
2019-05-21T01:36:00.878Z,11.77
2019-05-21T01:38:29.492Z,11.67
2019-05-21T01:40:59.054Z,12.60
2019-05-21T01:43:28.080Z,13.40
2019-05-21T01:45:56.748Z,10.93
2019-05-21T01:48:25.556Z,11.07
2019-05-21T01:50:54.696Z,11.13
2019-05-21T01:53:23.440Z,10.07
2019-05-21T01:55:52.294Z,9.67
2019-05-21T01:58:21.288Z,10.67
2019-05-21T02:00:50.070Z,10.07
2019-05-21T02:03:19.062Z,10.50
2019-05-21T02:05:48.059Z,9.43
2019-05-21T02:08:16.801Z,10.00
2019-05-21T02:10:45.490Z,10.80
2019-05-21T02:13:14.216Z,9.50
2019-05-21T02:15:43.094Z,11.07
2019-05-21T02:18:12.086Z,11.60
2019-05-21T02:20:40.785Z,10.70
2019-05-21T02:23:09.656Z,11.27
2019-05-21T02:25:38.420Z,10.93
2019-05-21T02:28:07.183Z,10.20
2019-05-21T02:30:35.796Z,10.70
2019-05-21T02:33:04.466Z,10.90
2019-05-21T02:35:50.994Z,11.10
2019-05-21T02:38:03.944Z,10.37
2019-05-21T02:40:32.575Z,11.17
2019-05-21T02:43:01.502Z,11.47
2019-05-21T02:45:30.157Z,11.23
2019-05-21T02:47:58.922Z,11.30
2019-05-21T02:50:27.738Z,10.40
2019-05-21T02:52:56.397Z,9.90
2019-05-21T02:55:25.154Z,9.63
2019-05-21T02:57:53.810Z,11.47
2019-05-21T03:00:40.538Z,10.30
2019-05-21T03:03:10.683Z,10.17
2019-05-21T03:05:39.459Z,10.30
2019-05-21T03:08:08.468Z,10.47
2019-05-21T03:10:37.374Z,10.70
2019-05-21T03:13:06.143Z,10.37
2019-05-21T03:15:34.924Z,10.57
2019-05-21T03:18:03.530Z,9.83
2019-05-21T03:20:32.406Z,9.77
2019-05-21T03:23:01.266Z,9.67
2019-05-21T03:25:30.058Z,9.37
2019-05-21T03:27:59.014Z,9.30
2019-05-21T03:30:27.821Z,10.00
2019-05-21T03:32:56.801Z,9.40
2019-05-21T03:35:25.721Z,9.33
2019-05-21T03:37:54.892Z,9.10
2019-05-21T03:40:23.496Z,9.73
2019-05-21T03:42:52.581Z,8.13
2019-05-21T03:45:21.390Z,9.17
2019-05-21T03:47:50.102Z,9.27
2019-05-21T03:50:19.250Z,8.67
2019-05-21T03:52:47.844Z,8.30
2019-05-21T03:55:16.540Z,9.17
2019-05-21T03:57:45.215Z,8.20
2019-05-21T04:00:14.472Z,8.03
2019-05-21T04:02:43.423Z,9.10
2019-05-21T04:05:12.128Z,7.90
2019-05-21T04:07:40.776Z,9.23
2019-05-21T04:10:14.378Z,8.60
2019-05-21T04:12:45.004Z,7.33
2019-05-21T04:15:16.186Z,8.57
2019-05-21T04:17:49.844Z,8.37
2019-05-21T04:20:18.486Z,8.60
2019-05-21T04:22:53.607Z,8.07
2019-05-21T04:25:22.973Z,8.77
2019-05-21T04:27:52.060Z,8.10
2019-05-21T04:30:20.905Z,8.23
2019-05-21T04:32:49.695Z,8.40
2019-05-21T04:35:18.442Z,8.13
2019-05-21T04:37:47.158Z,8.80
2019-05-21T04:40:16.215Z,7.70
2019-05-21T04:42:44.914Z,8.47
2019-05-21T04:45:13.932Z,8.30
2019-05-21T04:47:42.975Z,9.53
2019-05-21T04:50:11.753Z,8.80
2019-05-21T04:52:40.494Z,9.77
2019-05-21T04:55:09.711Z,8.40
2019-05-21T04:57:38.458Z,8.47
2019-05-21T05:00:07.610Z,9.17
2019-05-21T05:02:36.375Z,9.53
2019-05-21T05:05:05.158Z,9.13
2019-05-21T05:07:33.957Z,9.30
2019-05-21T05:10:02.559Z,9.80
2019-05-21T05:12:31.499Z,8.63
2019-05-21T05:15:00.384Z,9.13
2019-05-21T05:17:29.080Z,8.90
2019-05-21T05:19:58.120Z,8.60
2019-05-21T05:22:27.150Z,8.80
2019-05-21T05:24:56.181Z,8.40
2019-05-21T05:27:24.932Z,9.77
2019-05-21T05:29:53.853Z,8.27
2019-05-21T05:32:22.550Z,8.33
2019-05-21T05:34:51.428Z,8.67
2019-05-21T05:37:20.497Z,7.90
2019-05-21T05:39:49.127Z,7.47
2019-05-21T05:42:18.138Z,7.57
2019-05-21T05:44:47.198Z,7.20
2019-05-21T05:47:16.089Z,6.87
2019-05-21T05:49:48.599Z,7.33
2019-05-21T05:52:17.455Z,7.10
2019-05-21T05:54:46.557Z,6.40
2019-05-21T05:57:15.434Z,6.83
2019-05-21T05:59:44.382Z,7.07
2019-05-21T06:02:13.634Z,6.67
2019-05-21T06:04:42.340Z,8.10
2019-05-21T06:07:11.492Z,6.77
2019-05-21T06:09:40.574Z,9.67
2019-05-21T06:12:09.773Z,6.40
2019-05-21T06:14:39.002Z,7.33
2019-05-21T06:17:07.982Z,8.27
2019-05-21T06:19:36.735Z,7.60
2019-05-21T06:22:05.576Z,6.87
2019-05-21T06:24:34.891Z,6.70
2019-05-21T06:27:04.031Z,6.53
2019-05-21T06:29:33.266Z,6.60
2019-05-21T06:32:02.549Z,6.60
2019-05-21T06:34:31.244Z,6.50
2019-05-21T06:37:00.040Z,7.00
2019-05-21T06:39:29.084Z,6.53
2019-05-21T06:41:57.750Z,9.73
2019-05-21T06:44:26.966Z,8.13
2019-05-21T06:46:56.013Z,7.50
2019-05-21T06:49:25.518Z,6.87
2019-05-21T06:51:54.364Z,6.60
2019-05-21T06:54:23.003Z,6.47
2019-05-21T06:56:52.041Z,6.93
2019-05-21T06:59:20.838Z,7.30
2019-05-21T07:01:49.564Z,7.50
2019-05-21T07:04:18.456Z,7.10
2019-05-21T07:06:47.054Z,6.63
2019-05-21T07:09:15.888Z,6.97
2019-05-21T07:11:44.568Z,6.63
2019-05-21T07:14:13.554Z,6.90
2019-05-21T07:16:42.796Z,7.27
2019-05-21T07:19:12.018Z,7.70
2019-05-21T07:21:40.946Z,8.37
2019-05-21T07:24:09.564Z,6.63
2019-05-21T07:26:38.718Z,7.57
2019-05-21T07:29:07.636Z,7.97
2019-05-21T07:31:36.430Z,6.97
2019-05-21T07:34:05.264Z,7.43
2019-05-21T07:36:35.274Z,7.23
2019-05-21T07:39:05.086Z,7.30
2019-05-21T07:41:33.952Z,7.53
2019-05-21T07:44:02.887Z,7.37
2019-05-21T07:46:31.547Z,7.70
2019-05-21T07:49:00.554Z,6.77
2019-05-21T07:51:29.367Z,7.43
2019-05-21T07:53:58.208Z,9.20
2019-05-21T07:56:27.083Z,7.53
2019-05-21T07:58:55.846Z,6.90
2019-05-21T08:01:24.838Z,7.47
2019-05-21T08:03:53.908Z,7.47
2019-05-21T08:06:22.527Z,7.63
2019-05-21T08:08:51.182Z,7.77
2019-05-21T08:11:19.940Z,8.47
2019-05-21T08:13:48.915Z,8.27
2019-05-21T08:16:17.617Z,9.43
2019-05-21T08:18:46.349Z,8.37
2019-05-21T08:21:15.301Z,8.43
2019-05-21T08:23:44.318Z,8.30
2019-05-21T08:26:14.081Z,9.13
2019-05-21T08:28:43.138Z,8.80
2019-05-21T08:31:12.307Z,8.63
2019-05-21T08:33:41.231Z,9.30
2019-05-21T08:36:10.414Z,9.40
2019-05-21T08:38:39.104Z,8.70
2019-05-21T08:41:08.343Z,10.10
2019-05-21T08:43:37.475Z,10.30
2019-05-21T08:46:06.706Z,9.47
2019-05-21T08:48:35.476Z,10.57
2019-05-21T08:51:04.598Z,9.77
2019-05-21T08:53:33.614Z,11.63
2019-05-21T08:56:02.912Z,12.87
2019-05-21T08:58:31.925Z,11.10
2019-05-21T09:01:01.068Z,10.53
2019-05-21T09:03:29.795Z,11.60
2019-05-21T09:05:58.563Z,9.63
2019-05-21T09:08:27.407Z,10.37
2019-05-21T09:10:56.128Z,10.30
2019-05-21T09:13:24.827Z,10.27
2019-05-21T09:15:53.625Z,10.13
2019-05-21T09:18:22.945Z,10.00
2019-05-21T09:20:51.779Z,10.83
2019-05-21T09:23:20.499Z,10.30
2019-05-21T09:25:49.787Z,10.25
2019-05-21T09:28:18.705Z,11.17
2019-05-21T09:30:47.721Z,10.35
2019-05-21T09:33:16.520Z,12.27
2019-05-21T09:35:45.444Z,11.68
2019-05-21T09:38:14.406Z,10.53
2019-05-21T09:40:43.241Z,10.47
2019-05-21T09:43:12.079Z,9.40
2019-05-21T09:45:41.261Z,9.63
2019-05-21T09:48:09.967Z,11.00
2019-05-21T09:50:38.869Z,9.77
2019-05-21T09:53:07.743Z,9.97
2019-05-21T09:55:36.566Z,10.13
2019-05-21T09:58:33.214Z,9.30
2019-05-21T10:01:20.951Z,8.25
2019-05-21T10:03:55.571Z,8.78
2019-05-21T10:06:24.573Z,7.65
2019-05-21T10:08:53.225Z,8.50
2019-05-21T10:11:22.254Z,8.48
2019-05-21T10:13:51.249Z,8.73
2019-05-21T10:16:19.939Z,8.00
2019-05-21T10:18:48.977Z,7.70
2019-05-21T10:21:18.092Z,8.40
2019-05-21T10:23:46.900Z,8.05
2019-05-21T10:26:15.912Z,8.20
2019-05-21T10:28:44.870Z,8.70
2019-05-21T10:31:13.938Z,8.87
2019-05-21T10:33:42.701Z,9.73
2019-05-21T10:36:11.426Z,8.77
2019-05-21T10:38:40.757Z,8.60
2019-05-21T10:41:09.382Z,8.70
2019-05-21T10:43:38.175Z,10.30
2019-05-21T10:46:07.279Z,9.30
2019-05-21T10:48:36.003Z,7.97
2019-05-21T10:51:05.113Z,8.60
2019-05-21T10:53:34.152Z,8.50
2019-05-21T10:56:03.425Z,7.83
2019-05-21T10:58:32.604Z,8.63
2019-05-21T11:01:10.607Z,8.15
2019-05-21T11:04:04.293Z,8.93
2019-05-21T11:06:33.254Z,8.97
2019-05-21T11:09:01.854Z,7.37
2019-05-21T11:11:30.994Z,7.07
2019-05-21T11:13:59.992Z,6.05
2019-05-21T11:16:28.924Z,6.00
2019-05-21T11:18:57.930Z,5.97
2019-05-21T11:21:26.634Z,4.42
2019-05-21T11:23:55.695Z,5.03
2019-05-21T11:26:26.494Z,4.28
2019-05-21T11:28:55.482Z,4.53
2019-05-21T11:31:24.353Z,4.30
2019-05-21T11:33:53.154Z,5.15
2019-05-21T11:36:22.212Z,3.90
2019-05-21T11:38:51.435Z,4.20
2019-05-21T11:41:20.772Z,4.28
2019-05-21T11:43:50.287Z,3.75
2019-05-21T11:46:19.088Z,3.85
2019-05-21T11:48:48.034Z,3.70
2019-05-21T11:51:16.870Z,4.17
2019-05-21T11:53:45.696Z,4.22
2019-05-21T11:56:15.096Z,3.75
2019-05-21T11:58:44.151Z,3.70
2019-05-21T12:01:13.356Z,3.80
2019-05-21T12:03:42.117Z,4.37
2019-05-21T12:06:10.967Z,4.25
2019-05-21T12:08:54.101Z,4.70
2019-05-21T12:11:10.433Z,5.78
2019-05-21T12:13:39.596Z,4.83
2019-05-21T12:16:08.652Z,4.30
2019-05-21T12:18:37.577Z,4.33
2019-05-21T12:21:06.423Z,4.23
2019-05-21T12:23:35.272Z,4.33
2019-05-21T12:26:04.499Z,3.90
2019-05-21T12:28:33.546Z,4.40
2019-05-21T12:31:02.367Z,4.20
2019-05-21T12:33:34.862Z,4.63
2019-05-21T12:36:02.812Z,4.62
2019-05-21T12:38:31.654Z,5.20
2019-05-21T12:41:00.664Z,5.08
2019-05-21T12:43:29.490Z,5.35
2019-05-21T12:45:58.354Z,4.12
2019-05-21T12:48:27.537Z,5.20
2019-05-21T12:50:56.572Z,5.08
2019-05-21T12:53:25.482Z,5.58
2019-05-21T12:55:54.260Z,5.40
2019-05-21T12:58:22.983Z,5.28
2019-05-21T13:00:51.709Z,5.53
2019-05-21T13:03:20.324Z,5.30
2019-05-21T13:05:49.114Z,6.47
2019-05-21T13:08:17.958Z,5.85
2019-05-21T13:10:46.843Z,5.80
2019-05-21T13:13:15.968Z,5.97
2019-05-21T13:15:45.068Z,5.40
2019-05-21T13:18:13.896Z,6.03
2019-05-21T13:20:42.630Z,6.08
2019-05-21T13:23:11.716Z,5.28
2019-05-21T13:25:40.479Z,5.60
2019-05-21T13:28:09.265Z,5.83
2019-05-21T13:30:37.985Z,6.12
2019-05-21T13:33:06.774Z,5.63
2019-05-21T13:35:35.654Z,4.92
2019-05-21T13:38:04.462Z,5.55
2019-05-21T13:40:33.740Z,6.40
2019-05-21T13:43:02.595Z,4.83
2019-05-21T13:45:31.712Z,5.57
2019-05-21T13:48:00.511Z,5.62
2019-05-21T13:50:29.276Z,5.40
2019-05-21T13:52:58.588Z,5.33
2019-05-21T13:55:27.201Z,5.83
2019-05-21T13:57:56.062Z,5.27
2019-05-21T14:00:34.720Z,6.03
2019-05-21T14:03:03.735Z,6.37
2019-05-21T14:05:32.666Z,6.93
2019-05-21T14:08:01.697Z,7.57
2019-05-21T14:10:30.287Z,6.43
2019-05-21T14:12:59.181Z,5.60
2019-05-21T14:15:27.801Z,5.93
2019-05-21T14:17:56.456Z,7.33
2019-05-21T14:20:25.157Z,6.67
2019-05-21T14:22:54.147Z,6.30
2019-05-21T14:25:23.148Z,6.40
2019-05-21T14:27:51.902Z,6.33
2019-05-21T14:30:20.761Z,6.13
2019-05-21T14:32:49.898Z,6.30
2019-05-21T14:35:18.921Z,6.60
2019-05-21T14:37:47.635Z,6.37
2019-05-21T14:40:31.126Z,6.03
2019-05-21T14:42:59.179Z,5.22
2019-05-21T14:45:18.533Z,5.22
2019-05-21T14:47:47.255Z,5.00
2019-05-21T14:50:17.257Z,6.13
2019-05-21T14:52:46.161Z,5.60
2019-05-21T14:55:15.041Z,5.55
2019-05-21T14:57:43.969Z,6.58
2019-05-21T15:00:32.983Z,4.95
2019-05-21T15:03:02.161Z,5.78
2019-05-21T15:05:31.250Z,6.08
2019-05-21T15:08:00.027Z,5.92
2019-05-21T15:10:28.697Z,5.93
2019-05-21T15:12:57.490Z,5.45
2019-05-21T15:15:26.493Z,5.43
2019-05-21T15:17:55.256Z,6.30
2019-05-21T15:20:40.065Z,6.45
2019-05-21T15:23:09.335Z,5.85
2019-05-21T15:25:38.143Z,5.22
2019-05-21T15:28:07.159Z,6.30
2019-05-21T15:30:36.311Z,12.28
2019-05-21T15:33:05.311Z,7.62
2019-05-21T15:35:34.153Z,6.10
2019-05-21T15:38:02.862Z,6.03
2019-05-21T15:40:31.736Z,5.63
2019-05-21T15:43:00.637Z,5.65
2019-05-21T15:45:29.420Z,5.43
2019-05-21T15:47:58.262Z,5.40
2019-05-21T15:50:27.192Z,5.47
2019-05-21T15:52:56.761Z,5.57
2019-05-21T15:55:25.647Z,6.95
2019-05-21T15:57:54.723Z,5.53
2019-05-21T16:00:23.774Z,5.20
2019-05-21T16:02:52.608Z,6.28
2019-05-21T16:05:21.368Z,6.30
2019-05-21T16:07:50.436Z,7.23
2019-05-21T16:10:19.686Z,6.40
2019-05-21T16:12:48.399Z,7.17
2019-05-21T16:15:17.345Z,6.37
2019-05-21T16:17:46.384Z,7.43
2019-05-21T16:20:15.720Z,6.43
2019-05-21T16:22:44.391Z,6.83
2019-05-21T16:25:13.243Z,7.30
2019-05-21T16:27:41.926Z,6.80
2019-05-21T16:30:10.839Z,7.13
2019-05-21T16:32:39.847Z,6.77
2019-05-21T16:35:08.980Z,6.83
2019-05-21T16:37:37.772Z,7.13
2019-05-21T16:40:06.995Z,6.63
2019-05-21T16:42:35.734Z,9.33
2019-05-21T16:45:04.932Z,11.47
2019-05-21T16:47:44.299Z,13.47
2019-05-21T16:50:04.746Z,10.30
2019-05-21T16:52:33.685Z,8.03
2019-05-21T16:55:02.959Z,10.90
2019-05-21T16:57:31.925Z,10.33
2019-05-21T17:00:00.576Z,12.73
2019-05-21T17:02:29.563Z,15.17
2019-05-21T17:04:58.262Z,10.43
2019-05-21T17:07:26.940Z,8.50
2019-05-21T17:09:55.663Z,16.07
2019-05-21T17:12:24.713Z,12.07
2019-05-21T17:14:53.590Z,16.00
2019-05-21T17:17:22.318Z,12.10
2019-05-21T17:19:51.127Z,16.73
2019-05-21T17:22:20.211Z,29.02
2019-05-21T17:24:49.111Z,19.10
2019-05-21T17:27:17.764Z,12.07
2019-05-21T17:29:46.548Z,10.50
2019-05-21T17:32:15.409Z,9.23
2019-05-21T17:34:44.386Z,9.17
2019-05-21T17:37:13.016Z,17.60
2019-05-21T17:39:41.992Z,9.33
2019-05-21T17:42:15.597Z,11.50
2019-05-21T17:44:41.379Z,7.07
2019-05-21T17:47:10.569Z,6.53
2019-05-21T17:49:39.273Z,5.73
2019-05-21T17:52:08.102Z,5.97
2019-05-21T17:54:36.949Z,5.97
2019-05-21T17:57:05.947Z,6.70
2019-05-21T17:59:34.669Z,6.13
2019-05-21T18:02:04.741Z,6.03
2019-05-21T18:04:33.964Z,6.30
2019-05-21T18:07:03.193Z,6.10
2019-05-21T18:09:34.130Z,6.67
2019-05-21T18:12:02.896Z,5.50
2019-05-21T18:14:31.548Z,5.43
2019-05-21T18:17:00.851Z,5.80
2019-05-21T18:19:29.801Z,4.97
2019-05-21T18:21:59.671Z,5.72
2019-05-21T18:24:28.935Z,5.47
2019-05-21T18:26:57.734Z,5.10
2019-05-21T18:29:26.586Z,5.07
2019-05-21T18:31:55.462Z,5.90
2019-05-21T18:34:24.248Z,5.37
2019-05-21T18:36:53.262Z,5.83
2019-05-21T18:39:22.203Z,6.00
2019-05-21T18:41:50.870Z,6.03
2019-05-21T18:44:20.013Z,5.73
2019-05-21T18:46:49.186Z,5.23
2019-05-21T18:49:18.174Z,5.87
2019-05-21T18:51:46.843Z,6.50
2019-05-21T18:54:15.774Z,6.93
2019-05-21T18:56:44.388Z,6.13
2019-05-21T18:59:13.340Z,6.17
2019-05-21T19:01:42.327Z,5.77
2019-05-21T19:04:11.080Z,5.93
2019-05-21T19:06:39.865Z,6.30
2019-05-21T19:09:09.237Z,6.47
2019-05-21T19:11:38.202Z,6.70
2019-05-21T19:14:06.894Z,6.90
2019-05-21T19:16:35.752Z,7.30
2019-05-21T19:19:04.562Z,7.10
2019-05-21T19:21:33.574Z,7.67
2019-05-21T19:24:02.358Z,8.37
2019-05-21T19:26:31.010Z,9.20
2019-05-21T19:28:59.878Z,8.33
2019-05-21T19:31:28.569Z,9.07
2019-05-21T19:33:57.599Z,8.83
2019-05-21T19:36:26.504Z,8.07
2019-05-21T19:38:55.140Z,8.30
2019-05-21T19:41:24.012Z,8.50
2019-05-21T19:43:52.756Z,8.80
2019-05-21T19:46:21.506Z,8.97
2019-05-21T19:48:50.124Z,8.40
2019-05-21T19:51:18.919Z,7.87
2019-05-21T19:53:47.580Z,7.80
2019-05-21T19:56:16.479Z,9.07
2019-05-21T19:58:45.105Z,9.47
2019-05-21T20:01:14.434Z,9.43
2019-05-21T20:03:43.581Z,10.80
2019-05-21T20:06:15.010Z,11.73
2019-05-21T20:08:44.360Z,12.00
2019-05-21T20:11:14.565Z,12.47
2019-05-21T20:13:43.183Z,12.33
2019-05-21T20:16:12.988Z,11.60
2019-05-21T20:18:41.886Z,11.70
2019-05-21T20:21:10.827Z,11.90
2019-05-21T20:23:39.845Z,11.20
2019-05-21T20:26:11.402Z,11.13
2019-05-21T20:28:40.979Z,11.47
2019-05-21T20:31:09.896Z,10.73
2019-05-21T20:33:38.810Z,10.67
2019-05-21T20:36:08.052Z,11.40
2019-05-21T20:38:37.607Z,10.07
2019-05-21T20:41:07.656Z,10.17
2019-05-21T20:43:36.425Z,10.40
2019-05-21T20:46:07.544Z,9.50
2019-05-21T20:48:37.436Z,9.60
2019-05-21T20:51:07.319Z,9.00
2019-05-21T20:53:36.445Z,9.17
2019-05-21T20:56:06.839Z,11.57
2019-05-21T20:58:35.807Z,9.03
2019-05-21T21:01:06.206Z,9.07
2019-05-21T21:03:35.412Z,8.83
2019-05-21T21:06:05.409Z,8.70
2019-05-21T21:08:36.355Z,8.60
2019-05-21T21:11:07.060Z,9.20
2019-05-21T21:13:36.375Z,8.97
2019-05-21T21:16:05.677Z,9.33
2019-05-21T21:18:35.261Z,9.50
2019-05-21T21:21:04.559Z,9.40
2019-05-21T21:23:34.616Z,8.60
2019-05-21T21:26:04.535Z,8.47
2019-05-21T21:28:33.345Z,9.00
2019-05-21T21:31:02.272Z,7.80
2019-05-21T21:33:31.195Z,8.10
2019-05-21T21:36:00.017Z,7.93
2019-05-21T21:38:30.914Z,7.37
2019-05-21T21:40:59.506Z,7.73
2019-05-21T21:43:28.487Z,7.23
2019-05-21T21:45:57.715Z,7.83
2019-05-21T21:48:26.997Z,8.10
2019-05-21T21:50:55.646Z,7.97
2019-05-21T21:53:24.537Z,7.23
2019-05-21T21:55:53.527Z,7.77
2019-05-21T21:58:22.305Z,7.73
2019-05-21T22:01:27.621Z,7.53
2019-05-21T22:03:59.334Z,7.33
2019-05-21T22:06:29.630Z,7.67
2019-05-21T22:08:58.334Z,7.77
2019-05-21T22:11:27.411Z,7.63
2019-05-21T22:13:57.085Z,8.10
2019-05-21T22:16:27.767Z,7.87
2019-05-21T22:18:57.014Z,8.43
2019-05-21T22:21:26.665Z,8.23
2019-05-21T22:23:55.420Z,8.10
2019-05-21T22:26:24.775Z,8.40
2019-05-21T22:28:53.503Z,8.63
2019-05-21T22:31:22.403Z,8.57
2019-05-21T22:33:51.164Z,9.07
2019-05-21T22:36:20.491Z,8.77
2019-05-21T22:38:49.602Z,8.30
2019-05-21T22:41:18.234Z,8.27
2019-05-21T22:43:46.925Z,8.50
2019-05-21T22:46:15.635Z,8.67
2019-05-21T22:48:44.689Z,9.00
2019-05-21T22:51:13.562Z,9.07
2019-05-21T22:53:42.658Z,8.60
2019-05-21T22:56:11.456Z,9.27
2019-05-21T22:58:40.226Z,9.23
2019-05-21T23:01:10.342Z,9.10
2019-05-21T23:03:39.278Z,8.20
2019-05-21T23:06:07.960Z,9.23
2019-05-21T23:08:38.178Z,7.80
2019-05-21T23:11:06.762Z,8.30
2019-05-21T23:13:35.692Z,8.23
2019-05-21T23:16:04.880Z,8.90
2019-05-21T23:18:33.928Z,9.07
2019-05-21T23:21:03.920Z,10.07
2019-05-21T23:23:35.430Z,10.13
2019-05-21T23:26:04.972Z,9.67
2019-05-21T23:28:34.233Z,9.50
2019-05-21T23:31:05.027Z,10.40
2019-05-21T23:33:34.752Z,10.00
2019-05-21T23:36:03.591Z,9.97
2019-05-21T23:38:32.567Z,9.47
2019-05-21T23:41:02.148Z,10.30
2019-05-21T23:43:31.595Z,10.27
2019-05-21T23:46:00.382Z,10.53
2019-05-21T23:48:29.602Z,10.67
2019-05-21T23:50:58.406Z,10.23
2019-05-21T23:53:27.575Z,10.33
2019-05-21T23:55:56.312Z,10.60
2019-05-21T23:58:24.926Z,10.43
